createdAt,value
2022-11-05T00:00:37.774Z,99466.34
2022-11-05T00:03:30.224Z,99468.56
2022-11-05T00:06:27.935Z,99459.78
2022-11-05T00:09:14.196Z,99449.50
2022-11-05T00:12:00.278Z,99451.22
2022-11-05T00:14:46.391Z,99451.19
2022-11-05T00:17:16.412Z,99458.47
2022-11-05T00:19:44.909Z,99445.94
2022-11-05T00:22:31.218Z,99455.84
2022-11-05T00:25:18.127Z,99459.88
2022-11-05T00:27:48.196Z,99467.41
2022-11-05T00:30:19.387Z,99461.75
2022-11-05T00:32:51.062Z,99455.13
2022-11-05T00:35:23.194Z,99458.03
2022-11-05T00:37:51.765Z,99460.72
2022-11-05T00:40:20.835Z,99449.53
2022-11-05T00:43:07.153Z,99457.69
2022-11-05T00:45:35.818Z,99445.59
2022-11-05T00:48:24.114Z,99449.31
2022-11-05T00:50:52.911Z,99438.00
2022-11-05T00:53:21.564Z,99434.38
2022-11-05T00:55:49.926Z,99441.22
2022-11-05T00:58:20.130Z,99438.78
2022-11-05T01:00:50.152Z,99438.25
2022-11-05T01:03:22.070Z,99435.72
2022-11-05T01:05:52.279Z,99434.63
2022-11-05T01:08:22.443Z,99436.88
2022-11-05T01:10:52.868Z,99437.50
2022-11-05T01:13:23.495Z,99442.34
2022-11-05T01:15:52.737Z,99434.84
2022-11-05T01:18:23.991Z,99435.00
2022-11-05T01:20:52.822Z,99445.38
2022-11-05T01:23:21.771Z,99449.41
2022-11-05T01:25:50.333Z,99458.25
2022-11-05T01:28:19.120Z,99458.03
2022-11-05T01:30:47.780Z,99461.38
2022-11-05T01:33:16.433Z,99461.25
2022-11-05T01:35:46.452Z,99460.13
2022-11-05T01:38:15.140Z,99465.72
2022-11-05T01:40:44.295Z,99458.47
2022-11-05T01:43:16.191Z,99474.63
2022-11-05T01:45:46.275Z,99474.72
2022-11-05T01:48:17.446Z,99476.19
2022-11-05T01:50:53.568Z,99482.41
2022-11-05T01:53:26.401Z,99470.38
2022-11-05T01:55:58.519Z,99476.44
2022-11-05T01:58:31.893Z,99474.25
2022-11-05T02:01:00.629Z,99476.34
2022-11-05T02:03:30.246Z,99485.13
2022-11-05T02:06:01.247Z,99478.13
2022-11-05T02:08:47.529Z,99485.44
2022-11-05T02:11:18.611Z,99489.44
2022-11-05T02:13:47.893Z,99490.19
2022-11-05T02:16:29.237Z,99479.69
2022-11-05T02:19:01.298Z,99472.97
2022-11-05T02:22:01.150Z,99465.94
2022-11-05T02:25:03.353Z,99468.84
2022-11-05T02:28:07.007Z,99473.50
2022-11-05T02:30:43.911Z,99474.25
2022-11-05T02:33:23.060Z,99479.22
2022-11-05T02:36:15.303Z,99474.63
2022-11-05T02:38:50.216Z,99476.81
2022-11-05T02:41:25.251Z,99480.72
2022-11-05T02:44:04.046Z,99485.59
2022-11-05T02:46:43.830Z,99494.34
2022-11-05T02:49:21.003Z,99504.59
2022-11-05T02:51:55.085Z,99510.25
2022-11-05T02:54:26.556Z,99513.03
2022-11-05T02:56:57.033Z,99519.19
2022-11-05T02:59:25.453Z,99512.66
2022-11-05T03:01:55.530Z,99505.97
2022-11-05T03:04:27.640Z,99505.97
2022-11-05T03:07:23.778Z,99504.78
2022-11-05T03:10:15.553Z,99497.34
2022-11-05T03:12:52.185Z,99508.63
2022-11-05T03:15:28.437Z,99507.25
2022-11-05T03:18:03.519Z,99506.63
2022-11-05T03:20:37.349Z,99513.56
2022-11-05T03:23:11.834Z,99518.47
2022-11-05T03:25:45.216Z,99525.16
2022-11-05T03:28:15.278Z,99536.03
2022-11-05T03:30:44.580Z,99531.81
2022-11-05T03:33:19.086Z,99538.66
2022-11-05T03:35:49.418Z,99531.50
2022-11-05T03:38:22.328Z,99528.31
2022-11-05T03:40:53.512Z,99527.16
2022-11-05T03:43:24.491Z,99531.84
2022-11-05T03:45:57.627Z,99536.31
2022-11-05T03:48:29.953Z,99534.84
2022-11-05T03:51:02.473Z,99532.94
2022-11-05T03:53:34.696Z,99538.25
2022-11-05T03:56:05.390Z,99538.97
2022-11-05T03:58:33.749Z,99555.75
2022-11-05T04:01:03.474Z,99554.56
2022-11-05T04:03:36.672Z,99566.31
2022-11-05T04:06:23.704Z,99563.28
2022-11-05T04:09:09.770Z,99582.09
2022-11-05T04:11:55.920Z,99565.06
2022-11-05T04:14:26.343Z,99558.78
2022-11-05T04:17:10.387Z,99558.94
2022-11-05T04:19:59.324Z,99558.13
2022-11-05T04:22:46.859Z,99557.38
2022-11-05T04:25:16.621Z,99562.44
2022-11-05T04:27:45.672Z,99573.09
2022-11-05T04:30:20.721Z,99578.03
2022-11-05T04:33:00.310Z,99583.72
2022-11-05T04:35:31.703Z,99593.09
2022-11-05T04:38:00.340Z,99594.13
2022-11-05T04:40:29.171Z,99601.59
2022-11-05T04:42:58.543Z,99593.63
2022-11-05T04:45:28.759Z,99600.34
2022-11-05T04:47:57.556Z,99609.47
2022-11-05T04:50:26.222Z,99619.22
2022-11-05T04:52:55.935Z,99618.44
2022-11-05T04:55:24.641Z,99617.59
2022-11-05T04:57:54.033Z,99615.69
2022-11-05T05:00:23.805Z,99632.53
2022-11-05T05:02:52.524Z,99638.78
2022-11-05T05:05:22.684Z,99641.72
2022-11-05T05:07:51.033Z,99632.16
2022-11-05T05:10:21.156Z,99634.56
2022-11-05T05:12:49.884Z,99629.59
2022-11-05T05:15:18.626Z,99627.06
2022-11-05T05:17:51.813Z,99633.31
2022-11-05T05:20:38.148Z,99635.75
2022-11-05T05:23:06.711Z,99640.88
2022-11-05T05:25:36.849Z,99623.78
2022-11-05T05:28:05.673Z,99632.13
2022-11-05T05:30:34.342Z,99640.06
2022-11-05T05:33:04.097Z,99635.22
2022-11-05T05:35:33.760Z,99648.06
2022-11-05T05:38:02.451Z,99658.66
2022-11-05T05:40:30.709Z,99642.69
2022-11-05T05:43:00.739Z,99647.72
2022-11-05T05:45:29.404Z,99654.78
2022-11-05T05:47:58.109Z,99660.31
2022-11-05T05:50:26.702Z,99671.59
2022-11-05T05:52:55.131Z,99664.88
2022-11-05T05:55:23.709Z,99677.59
2022-11-05T05:57:52.306Z,99672.06
2022-11-05T06:00:22.609Z,99663.97
2022-11-05T06:02:51.292Z,99666.81
2022-11-05T06:05:19.913Z,99671.72
2022-11-05T06:07:48.315Z,99688.84
2022-11-05T06:10:17.030Z,99698.44
2022-11-05T06:12:45.672Z,99691.41
2022-11-05T06:15:14.404Z,99697.06
2022-11-05T06:17:45.846Z,99693.94
2022-11-05T06:20:14.605Z,99703.59
2022-11-05T06:22:42.852Z,99698.13
2022-11-05T06:25:11.842Z,99693.91
2022-11-05T06:27:40.430Z,99702.47
2022-11-05T06:30:10.443Z,99697.47
2022-11-05T06:32:39.298Z,99707.84
2022-11-05T06:35:10.017Z,99702.38
2022-11-05T06:37:38.045Z,99700.09
2022-11-05T06:40:08.274Z,99701.66
2022-11-05T06:42:36.999Z,99707.53
2022-11-05T06:45:06.596Z,99711.22
2022-11-05T06:47:35.246Z,99707.13
2022-11-05T06:50:04.016Z,99705.63
2022-11-05T06:52:38.325Z,99715.16
2022-11-05T06:55:10.425Z,99717.06
2022-11-05T06:57:39.450Z,99717.22
2022-11-05T07:00:10.850Z,99716.50
2022-11-05T07:02:39.452Z,99719.78
2022-11-05T07:05:11.238Z,99720.81
2022-11-05T07:07:41.086Z,99722.88
2022-11-05T07:10:13.353Z,99723.03
2022-11-05T07:12:42.087Z,99724.13
2022-11-05T07:15:11.885Z,99721.78
2022-11-05T07:17:40.763Z,99722.78
2022-11-05T07:20:10.819Z,99730.13
2022-11-05T07:22:40.632Z,99714.81
2022-11-05T07:25:10.029Z,99732.09
2022-11-05T07:27:39.556Z,99726.97
2022-11-05T07:30:10.147Z,99726.59
2022-11-05T07:32:39.756Z,99729.28
2022-11-05T07:35:09.527Z,99742.88
2022-11-05T07:37:45.540Z,99748.75
2022-11-05T07:40:15.735Z,99741.66
2022-11-05T07:42:45.144Z,99747.72
2022-11-05T07:45:14.042Z,99761.88
2022-11-05T07:47:47.327Z,99761.41
2022-11-05T07:50:16.951Z,99764.72
2022-11-05T07:52:47.987Z,99759.44
2022-11-05T07:55:17.311Z,99773.09
2022-11-05T07:57:47.004Z,99778.56
2022-11-05T08:00:17.405Z,99780.91
2022-11-05T08:02:47.140Z,99785.78
2022-11-05T08:05:15.963Z,99790.75
2022-11-05T08:07:44.349Z,99793.09
2022-11-05T08:10:14.476Z,99788.75
2022-11-05T08:12:43.104Z,99791.63
2022-11-05T08:15:12.133Z,99790.13
2022-11-05T08:17:41.864Z,99792.97
2022-11-05T08:20:11.890Z,99787.66
2022-11-05T08:22:43.744Z,99788.84
2022-11-05T08:25:12.644Z,99795.91
2022-11-05T08:27:42.755Z,99789.34
2022-11-05T08:30:12.214Z,99786.16
2022-11-05T08:32:40.875Z,99791.66
2022-11-05T08:35:09.784Z,99796.19
2022-11-05T08:37:38.125Z,99797.78
2022-11-05T08:40:08.143Z,99795.50
2022-11-05T08:42:36.915Z,99789.56
2022-11-05T08:45:08.314Z,99786.75
2022-11-05T08:47:37.020Z,99803.25
2022-11-05T08:50:06.051Z,99788.59
2022-11-05T08:52:34.321Z,99791.09
2022-11-05T08:55:03.067Z,99804.69
2022-11-05T08:57:31.808Z,99811.72
2022-11-05T09:00:00.433Z,99822.19
2022-11-05T09:02:30.714Z,99825.13
2022-11-05T09:05:01.044Z,99833.63
2022-11-05T09:28:14.773Z,99831.22
2022-11-05T09:30:47.251Z,99838.66
2022-11-05T09:33:18.113Z,99839.69
2022-11-05T09:35:46.883Z,99834.44
2022-11-05T09:38:15.719Z,99842.81
2022-11-05T09:40:46.638Z,99858.91
2022-11-05T09:43:18.949Z,99849.91
2022-11-05T09:45:48.569Z,99864.69
2022-11-05T09:48:22.045Z,99868.97
2022-11-05T09:50:52.019Z,99870.88
2022-11-05T09:53:22.097Z,99871.75
2022-11-05T09:55:52.164Z,99880.63
2022-11-05T09:58:25.935Z,99876.31
2022-11-05T10:00:58.714Z,99878.97
2022-11-05T10:03:31.033Z,99884.28
2022-11-05T10:06:05.498Z,99884.88
2022-11-05T10:08:36.459Z,99886.72
2022-11-05T10:11:08.280Z,99899.16
2022-11-05T10:13:39.411Z,99903.28
2022-11-05T10:16:22.151Z,99907.78
2022-11-05T10:18:55.302Z,99902.53
2022-11-05T10:21:44.351Z,99908.75
2022-11-05T10:24:15.784Z,99906.81
2022-11-05T10:26:46.584Z,99910.53
2022-11-05T10:29:19.224Z,99913.84
2022-11-05T10:31:47.654Z,99923.47
2022-11-05T10:34:19.049Z,99930.34
2022-11-05T10:36:47.721Z,99929.50
2022-11-05T10:39:17.921Z,99916.28
2022-11-05T10:42:06.096Z,99921.88
2022-11-05T10:44:39.261Z,99915.50
2022-11-05T10:47:34.517Z,99910.53
2022-11-05T10:50:06.303Z,99913.75
2022-11-05T10:52:37.256Z,99919.97
2022-11-05T10:55:12.352Z,99920.81
2022-11-05T10:57:42.559Z,99920.59
2022-11-05T11:00:25.371Z,99925.31
2022-11-05T11:02:56.378Z,99929.44
2022-11-05T11:05:28.925Z,99932.44
2022-11-05T11:07:59.826Z,99934.41
2022-11-05T11:10:29.445Z,99937.75
2022-11-05T11:12:58.806Z,99936.03
2022-11-05T11:15:28.915Z,99938.59
2022-11-05T11:17:57.990Z,99945.56
2022-11-05T11:20:29.870Z,99943.72
2022-11-05T11:23:03.072Z,99939.34
2022-11-05T11:25:34.893Z,99940.78
2022-11-05T11:28:05.371Z,99939.19
2022-11-05T11:30:35.277Z,99945.84
2022-11-05T11:33:09.005Z,99941.72
2022-11-05T11:35:40.124Z,99941.47
2022-11-05T11:38:12.849Z,99946.84
2022-11-05T11:40:41.208Z,99949.53
2022-11-05T11:43:16.653Z,99949.28
2022-11-05T11:45:47.641Z,99947.34
2022-11-05T11:48:19.586Z,99953.19
2022-11-05T11:50:50.364Z,99950.81
2022-11-05T11:53:28.042Z,99958.38
2022-11-05T11:56:02.632Z,99959.22
2022-11-05T11:58:39.900Z,99970.22
2022-11-05T12:01:21.844Z,99969.50
2022-11-05T12:03:52.813Z,99973.88
2022-11-05T12:06:28.124Z,99983.19
2022-11-05T12:09:06.724Z,99985.81
2022-11-05T12:11:40.522Z,99984.06
2022-11-05T12:14:19.483Z,99983.09
2022-11-05T12:16:59.321Z,99989.75
2022-11-05T12:19:59.693Z,99978.13
2022-11-05T12:22:41.324Z,99989.84
2022-11-05T12:25:16.039Z,99991.94
2022-11-05T12:27:59.259Z,99988.34
2022-11-05T12:30:29.377Z,99988.19
2022-11-05T12:33:15.640Z,99992.47
2022-11-05T12:35:58.203Z,99980.72
2022-11-05T12:38:48.073Z,99970.22
2022-11-05T12:41:22.588Z,99976.09
2022-11-05T12:44:01.940Z,99964.84
2022-11-05T12:46:36.615Z,99971.44
2022-11-05T12:49:24.585Z,99977.16
2022-11-05T12:52:06.479Z,99970.38
2022-11-05T12:54:47.113Z,99982.50
2022-11-05T12:57:16.505Z,99983.03
2022-11-05T12:59:52.245Z,99985.34
2022-11-05T13:02:26.664Z,99980.81
2022-11-05T13:04:58.974Z,99980.47
2022-11-05T13:07:31.442Z,99977.81
2022-11-05T13:10:05.533Z,99973.47
2022-11-05T13:12:37.761Z,99970.22
2022-11-05T13:15:10.454Z,99985.56
2022-11-05T13:17:44.749Z,99993.47
2022-11-05T13:20:18.213Z,99989.78
2022-11-05T13:22:48.121Z,99998.53
2022-11-05T13:25:22.610Z,100008.19
2022-11-05T13:27:56.398Z,100004.00
2022-11-05T13:30:26.848Z,100013.38
2022-11-05T13:32:56.869Z,100018.59
2022-11-05T13:35:29.473Z,100024.41
2022-11-05T13:38:17.491Z,100029.13
2022-11-05T13:40:57.596Z,100029.97
2022-11-05T13:43:35.560Z,100028.41
2022-11-05T13:46:25.053Z,100032.56
2022-11-05T13:49:06.907Z,100037.22
2022-11-05T13:51:53.648Z,100045.00
2022-11-05T13:54:54.749Z,100046.50
2022-11-05T13:57:46.812Z,100043.59
2022-11-05T14:00:18.689Z,100048.94
2022-11-05T14:02:51.096Z,100061.59
2022-11-05T14:05:26.980Z,100056.91
2022-11-05T14:07:56.122Z,100063.81
2022-11-05T14:10:32.848Z,100064.47
2022-11-05T14:13:09.984Z,100068.41
2022-11-05T14:15:39.016Z,100073.81
2022-11-05T14:18:19.846Z,100080.75
2022-11-05T14:20:59.839Z,100079.88
2022-11-05T14:23:38.004Z,100083.09
2022-11-05T14:26:18.700Z,100089.53
2022-11-05T14:29:04.829Z,100089.81
2022-11-05T14:34:55.942Z,100095.06
2022-11-05T14:37:29.416Z,100096.25
2022-11-05T14:39:58.871Z,100100.94
2022-11-05T14:42:29.990Z,100100.63
2022-11-05T14:45:24.608Z,100100.41
2022-11-05T14:47:55.436Z,100108.03
2022-11-05T14:50:28.952Z,100110.38
2022-11-05T14:52:59.848Z,100112.66
2022-11-05T14:55:30.833Z,100106.38
2022-11-05T14:58:22.016Z,100104.59
2022-11-05T15:00:52.188Z,100106.88
2022-11-05T15:03:47.439Z,100110.66
2022-11-05T15:06:25.846Z,100117.56
2022-11-05T15:09:23.097Z,100118.84
2022-11-05T15:12:02.568Z,100116.91
2022-11-05T15:14:33.904Z,100116.84
2022-11-05T15:17:13.658Z,100121.03
2022-11-05T15:19:43.187Z,100116.44
2022-11-05T15:22:23.073Z,100122.66
2022-11-05T15:24:52.023Z,100130.72
2022-11-05T15:27:35.577Z,100123.69
2022-11-05T15:30:12.070Z,100131.31
2022-11-05T15:32:42.166Z,100128.44
2022-11-05T15:35:23.563Z,100141.97
2022-11-05T15:37:57.287Z,100145.63
2022-11-05T15:40:30.816Z,100146.03
2022-11-05T15:43:17.644Z,100149.28
2022-11-05T15:45:59.291Z,100145.00
2022-11-05T15:48:29.320Z,100151.47
2022-11-05T15:50:58.053Z,100140.19
2022-11-05T15:54:23.954Z,100149.28
2022-11-05T15:56:49.271Z,100153.13
2022-11-05T15:59:19.671Z,100154.44
2022-11-05T16:01:49.752Z,100151.50
2022-11-05T16:04:23.068Z,100161.28
2022-11-05T16:06:55.431Z,100156.94
2022-11-05T16:09:27.051Z,100158.22
2022-11-05T16:12:14.038Z,100165.25
2022-11-05T16:14:43.118Z,100174.56
2022-11-05T16:17:19.237Z,100172.94
2022-11-05T16:19:49.851Z,100177.59
2022-11-05T16:22:18.993Z,100177.59
2022-11-05T16:24:47.756Z,100178.63
2022-11-05T16:27:19.720Z,100180.53
2022-11-05T16:29:51.371Z,100176.06
2022-11-05T16:32:28.357Z,100184.88
2022-11-05T16:35:01.601Z,100189.81
2022-11-05T16:37:33.123Z,100187.09
2022-11-05T16:40:03.719Z,100208.00
2022-11-05T16:42:40.384Z,100208.63
2022-11-05T16:45:13.718Z,100215.94
2022-11-05T16:47:42.878Z,100212.91
2022-11-05T16:50:28.314Z,100216.88
2022-11-05T16:52:56.684Z,100216.59
2022-11-05T16:55:25.398Z,100222.25
2022-11-05T16:57:55.479Z,100219.56
2022-11-05T17:00:25.382Z,100219.69
2022-11-05T17:02:54.703Z,100218.53
2022-11-05T17:05:27.374Z,100225.06
2022-11-05T17:07:57.701Z,100236.03
2022-11-05T17:10:27.183Z,100241.84
2022-11-05T17:12:55.853Z,100249.31
2022-11-05T17:15:26.435Z,100247.56
2022-11-05T17:17:56.720Z,100254.19
2022-11-05T17:20:36.793Z,100254.66
2022-11-05T17:23:10.711Z,100256.22
2022-11-05T17:25:39.898Z,100262.25
2022-11-05T17:28:09.351Z,100261.06
2022-11-05T17:30:41.382Z,100258.44
2022-11-05T17:33:11.310Z,100262.00
2022-11-05T17:35:40.857Z,100269.81
2022-11-05T17:38:11.338Z,100267.75
2022-11-05T17:40:40.276Z,100270.28
2022-11-05T17:43:09.016Z,100282.69
2022-11-05T17:45:43.900Z,100278.41
2022-11-05T17:48:12.894Z,100277.75
2022-11-05T17:50:42.444Z,100280.41
2022-11-05T17:53:13.613Z,100287.63
2022-11-05T17:55:42.777Z,100283.94
2022-11-05T17:58:11.567Z,100289.94
2022-11-05T18:00:41.010Z,100296.84
2022-11-05T18:03:11.112Z,100301.78
2022-11-05T18:05:40.186Z,100296.66
2022-11-05T18:08:09.582Z,100301.31
2022-11-05T18:10:39.850Z,100291.00
2022-11-05T18:13:08.779Z,100299.44
2022-11-05T18:15:41.229Z,100300.44
2022-11-05T18:18:10.472Z,100298.38
2022-11-05T18:20:39.520Z,100295.56
2022-11-05T18:23:08.179Z,100296.53
2022-11-05T18:25:38.174Z,100301.00
2022-11-05T18:28:06.549Z,100300.13
2022-11-05T18:30:35.540Z,100304.44
2022-11-05T18:33:04.175Z,100311.38
2022-11-05T18:35:32.768Z,100310.47
2022-11-05T18:38:01.492Z,100312.66
2022-11-05T18:40:29.828Z,100308.84
2022-11-05T18:42:59.755Z,100316.84
2022-11-05T18:45:29.918Z,100311.50
2022-11-05T18:47:58.519Z,100315.97
2022-11-05T18:50:27.125Z,100318.84
2022-11-05T18:52:55.500Z,100319.84
2022-11-05T18:55:24.503Z,100321.84
2022-11-05T18:57:53.211Z,100319.19
2022-11-05T19:00:23.526Z,100319.16
2022-11-05T19:02:52.247Z,100320.47
2022-11-05T19:05:29.793Z,100326.31
2022-11-05T19:07:58.507Z,100337.00
2022-11-05T19:10:27.483Z,100337.63
2022-11-05T19:12:56.255Z,100326.81
2022-11-05T19:15:26.243Z,100329.31
2022-11-05T19:17:54.904Z,100327.47
2022-11-05T19:20:23.568Z,100330.97
2022-11-05T19:22:51.864Z,100338.63
2022-11-05T19:25:20.535Z,100345.78
2022-11-05T19:27:49.209Z,100347.47
2022-11-05T19:30:17.806Z,100348.97
2022-11-05T19:32:47.869Z,100353.59
2022-11-05T19:35:16.601Z,100358.41
2022-11-05T19:37:45.166Z,100356.94
2022-11-05T19:40:13.786Z,100361.59
2022-11-05T19:42:42.413Z,100362.75
2022-11-05T19:45:38.313Z,100369.06
2022-11-05T19:48:01.730Z,100370.88
2022-11-05T19:50:30.291Z,100380.72
2022-11-05T19:52:58.982Z,100376.44
2022-11-05T19:55:27.382Z,100371.59
2022-11-05T19:57:56.066Z,100374.25
2022-11-05T20:00:24.781Z,100374.78
2022-11-05T20:02:53.603Z,100383.22
2022-11-05T20:05:23.705Z,100379.25
2022-11-05T20:07:53.225Z,100381.91
2022-11-05T20:10:22.603Z,100385.56
2022-11-05T20:12:51.421Z,100394.38
2022-11-05T20:15:20.241Z,100390.56
2022-11-05T20:17:52.432Z,100394.72
2022-11-05T20:20:21.076Z,100393.03
2022-11-05T20:22:52.844Z,100393.38
2022-11-05T20:25:21.543Z,100401.38
2022-11-05T20:27:50.209Z,100402.38
2022-11-05T20:30:19.714Z,100401.22
2022-11-05T20:32:48.329Z,100407.53
2022-11-05T20:35:17.144Z,100409.34
2022-11-05T20:37:48.493Z,100405.22
2022-11-05T20:40:23.141Z,100414.69
2022-11-05T20:42:51.797Z,100421.00
2022-11-05T20:45:20.415Z,100421.84
2022-11-05T20:47:49.027Z,100409.69
2022-11-05T20:50:18.026Z,100405.38
2022-11-05T20:52:46.584Z,100419.53
2022-11-05T20:55:15.274Z,100426.00
2022-11-05T20:57:45.277Z,100426.69
2022-11-05T21:00:15.243Z,100427.16
2022-11-05T21:02:43.957Z,100428.66
2022-11-05T21:05:12.747Z,100432.00
2022-11-05T21:07:41.085Z,100427.66
2022-11-05T21:10:10.115Z,100430.53
2022-11-05T21:12:38.758Z,100438.13
2022-11-05T21:15:10.621Z,100435.97
2022-11-05T21:17:39.291Z,100429.13
2022-11-05T21:20:08.756Z,100431.63
2022-11-05T21:22:37.039Z,100435.78
2022-11-05T21:25:06.284Z,100430.50
2022-11-05T21:27:34.948Z,100438.47
2022-11-05T21:30:03.578Z,100440.97
2022-11-05T21:32:33.795Z,100438.38
2022-11-05T21:35:02.656Z,100444.25
2022-11-05T21:37:31.206Z,100441.75
2022-11-05T21:39:59.805Z,100440.56
2022-11-05T21:42:29.969Z,100441.47
2022-11-05T21:45:00.575Z,100441.47
2022-11-05T21:47:30.569Z,100447.94
2022-11-05T21:50:00.640Z,100442.31
2022-11-05T21:52:46.509Z,100441.31
2022-11-05T21:55:35.925Z,100443.72
2022-11-05T21:58:28.742Z,100440.06
2022-11-05T22:00:57.354Z,100443.59
2022-11-05T22:03:25.982Z,100435.22
2022-11-05T22:05:57.328Z,100446.44
2022-11-05T22:08:25.968Z,100440.41
2022-11-05T22:10:54.270Z,100448.13
2022-11-05T22:13:22.930Z,100441.59
2022-11-05T22:15:57.711Z,100443.97
2022-11-05T22:18:26.552Z,100443.13
2022-11-05T22:20:56.568Z,100453.31
2022-11-05T22:23:25.226Z,100450.63
2022-11-05T22:26:00.100Z,100465.09
2022-11-05T22:28:28.723Z,100462.09
2022-11-05T22:30:57.347Z,100462.34
2022-11-05T22:33:26.198Z,100466.06
2022-11-05T22:35:56.286Z,100479.34
2022-11-05T22:38:25.051Z,100473.78
2022-11-05T22:40:53.592Z,100468.50
2022-11-05T22:43:22.258Z,100470.22
2022-11-05T22:45:50.892Z,100474.56
2022-11-05T22:48:19.520Z,100476.88
2022-11-05T22:50:48.121Z,100474.22
2022-11-05T22:53:18.091Z,100461.91
2022-11-05T22:55:46.336Z,100480.09
2022-11-05T22:58:15.445Z,100471.66
2022-11-05T23:00:44.435Z,100470.69
2022-11-05T23:03:13.255Z,100468.47
2022-11-05T23:05:42.015Z,100471.56
2022-11-05T23:08:28.613Z,100484.44
2022-11-05T23:11:16.374Z,100472.06
2022-11-05T23:13:44.942Z,100479.41
2022-11-05T23:16:30.803Z,100475.34
2022-11-05T23:19:17.096Z,100475.75
2022-11-05T23:22:03.379Z,100470.75
2022-11-05T23:24:32.057Z,100484.00
2022-11-05T23:27:02.086Z,100476.41
2022-11-05T23:29:31.199Z,100470.31
2022-11-05T23:32:17.285Z,100480.75
2022-11-05T23:34:45.646Z,100475.31
2022-11-05T23:37:31.636Z,100482.31
2022-11-05T23:40:00.271Z,100484.25
2022-11-05T23:42:47.723Z,100477.19
2022-11-05T23:45:34.172Z,100473.19
2022-11-05T23:48:20.029Z,100474.78
2022-11-05T23:50:52.668Z,100479.38
2022-11-05T23:53:21.380Z,100480.56
2022-11-05T23:55:49.857Z,100486.00
2022-11-05T23:58:20.316Z,100485.81
